Time;durP1;ratioP1;P1;durP2;ratioP2;P2;SDS_P1;SDS_P2;PMS_P1;PMS_P2;Temp;Humidity;BMP_temperature;BMP_pressure;BME280_temperature;BME280_humidity;BME280_pressure;Samples;Min_cycle;Max_cycle;Signal;HPM_P1;HPM_P2
2022/04/07 00:01:52;;;;;;;2.13;1.10;;;10.90;73.50;;;;;;4998358;28;20087;-76
2022/04/07 00:04:17;;;;;;;1.83;1.10;;;10.90;73.70;;;;;;5009427;28;20029;-78
2022/04/07 00:06:43;;;;;;;1.00;0.90;;;10.80;73.70;;;;;;5005001;28;20041;-77
2022/04/07 00:09:08;;;;;;;2.30;1.10;;;10.90;73.90;;;;;;5018729;28;20028;-77
2022/04/07 00:11:34;;;;;;;2.45;1.00;;;10.80;73.90;;;;;;5025793;28;20170;-76
2022/04/07 00:13:59;;;;;;;2.03;1.05;;;10.80;74.00;;;;;;5015731;28;20115;-77
2022/04/07 00:16:25;;;;;;;2.42;1.00;;;10.80;74.00;;;;;;5024500;28;20029;-77
2022/04/07 00:18:51;;;;;;;1.33;1.00;;;10.80;74.20;;;;;;5021024;28;20041;-77
2022/04/07 00:21:24;;;;;;;2.33;1.20;;;10.70;74.30;;;;;;5014288;28;20033;-76
2022/04/07 00:23:51;;;;;;;1.67;1.00;;;10.70;74.40;;;;;;4997163;28;20050;-77
2022/04/07 00:26:17;;;;;;;1.15;1.00;;;10.70;74.50;;;;;;5024128;28;20059;-76
2022/04/07 00:28:42;;;;;;;1.38;0.90;;;10.60;74.50;;;;;;5017585;28;20071;-77
2022/04/07 00:31:08;;;;;;;1.67;1.10;;;10.60;74.50;;;;;;5007710;28;20048;-77
2022/04/07 00:33:34;;;;;;;2.13;1.25;;;10.60;74.60;;;;;;5005740;28;20032;-77
2022/04/07 00:35:59;;;;;;;3.25;1.25;;;10.60;74.80;;;;;;5010977;28;20056;-77
2022/04/07 00:38:25;;;;;;;2.33;1.10;;;10.50;74.70;;;;;;5021618;28;20056;-77
2022/04/07 00:40:50;;;;;;;2.17;1.02;;;10.50;74.80;;;;;;5020456;28;20029;-76
2022/04/07 00:43:29;;;;;;;1.80;1.00;;;10.50;74.80;;;;;;4996905;28;20037;-76
2022/04/07 00:45:54;;;;;;;1.92;1.23;;;10.50;75.20;;;;;;5025197;28;20036;-78
2022/04/07 00:48:20;;;;;;;2.17;1.13;;;10.40;75.00;;;;;;5022179;28;20025;-77
2022/04/07 00:50:46;;;;;;;1.90;1.00;;;10.40;75.10;;;;;;4996992;28;20032;-77
2022/04/07 00:53:12;;;;;;;2.05;1.23;;;10.40;75.10;;;;;;5012387;28;20071;-77
2022/04/07 00:55:37;;;;;;;1.58;1.20;;;10.40;75.10;;;;;;5020922;28;20053;-77
2022/04/07 00:58:03;;;;;;;3.70;1.08;;;10.40;75.20;;;;;;4984030;28;20504;-77
2022/04/07 01:00:30;;;;;;;2.65;1.08;;;10.40;75.30;;;;;;5004612;28;20049;-78
2022/04/07 01:02:55;;;;;;;4.35;1.40;;;10.40;75.40;;;;;;5020729;28;20041;-76
2022/04/07 01:05:23;;;;;;;3.55;1.23;;;10.30;75.40;;;;;;5025766;28;20089;-76
2022/04/07 01:07:49;;;;;;;1.23;1.10;;;10.30;75.50;;;;;;5006956;28;20118;-76
2022/04/07 01:10:14;;;;;;;1.10;0.90;;;10.30;75.50;;;;;;5012402;28;20068;-76
2022/04/07 01:12:40;;;;;;;2.05;1.10;;;10.40;75.60;;;;;;5023439;28;20513;-77
2022/04/07 01:15:06;;;;;;;1.42;1.23;;;10.30;75.50;;;;;;5011710;28;20041;-77
2022/04/07 01:17:34;;;;;;;2.53;1.48;;;10.40;75.60;;;;;;5002747;28;20040;-78
2022/04/07 01:20:00;;;;;;;2.97;1.30;;;10.40;75.70;;;;;;4986535;28;20033;-76
2022/04/07 01:22:26;;;;;;;1.60;1.10;;;10.40;75.70;;;;;;4983057;28;20041;-76
2022/04/07 01:24:51;;;;;;;1.88;1.20;;;10.40;75.70;;;;;;5005662;28;20040;-77
2022/04/07 01:27:17;;;;;;;3.38;1.30;;;10.40;75.60;;;;;;5041526;28;20032;-77
2022/04/07 01:29:43;;;;;;;1.45;0.95;;;10.40;75.70;;;;;;5014506;28;20033;-77
2022/04/07 01:32:21;;;;;;;1.60;1.30;;;10.30;75.60;;;;;;5007644;28;20371;-76
2022/04/07 01:34:47;;;;;;;1.90;1.40;;;10.30;75.80;;;;;;5003853;28;20057;-77
2022/04/07 01:37:13;;;;;;;2.25;2.00;;;10.30;75.60;;;;;;5012315;28;20087;-76
2022/04/07 01:39:41;;;;;;;3.88;1.33;;;10.30;75.60;;;;;;5009173;28;20037;-76
2022/04/07 01:42:11;;;;;;;2.35;1.45;;;10.20;75.70;;;;;;5006374;28;20089;-76
2022/04/07 01:44:38;;;;;;;1.73;1.30;;;10.20;75.80;;;;;;4995211;28;20032;-77
2022/04/07 01:47:04;;;;;;;1.52;1.17;;;10.20;75.80;;;;;;5020065;28;20120;-77
2022/04/07 01:49:29;;;;;;;1.10;1.00;;;10.20;75.80;;;;;;5023932;28;20112;-77
2022/04/07 01:51:55;;;;;;;1.27;1.00;;;10.20;75.90;;;;;;5005981;28;20052;-76
2022/04/07 01:54:21;;;;;;;1.77;1.15;;;10.20;75.90;;;;;;5024021;28;20060;-78
2022/04/07 01:56:47;;;;;;;1.30;1.10;;;10.20;76.00;;;;;;5001639;28;20055;-77
2022/04/07 01:59:12;;;;;;;5.40;1.35;;;10.20;76.10;;;;;;5001808;28;20562;-76
2022/04/07 02:01:38;;;;;;;2.10;1.02;;;10.10;76.10;;;;;;4996989;28;20638;-77
2022/04/07 02:04:04;;;;;;;1.92;1.00;;;10.10;76.20;;;;;;5039690;28;20029;-76
2022/04/07 02:06:30;;;;;;;2.70;1.05;;;10.10;76.30;;;;;;5007777;28;20453;-77
2022/04/07 02:08:56;;;;;;;1.17;1.00;;;10.10;76.20;;;;;;5016652;28;20028;-76
2022/04/07 02:11:22;;;;;;;1.85;0.98;;;10.10;76.30;;;;;;5000928;28;20682;-77
2022/04/07 02:13:48;;;;;;;1.10;1.00;;;10.10;76.40;;;;;;5010475;28;20099;-76
2022/04/07 02:16:14;;;;;;;3.65;1.13;;;10.20;76.40;;;;;;4995377;28;20047;-77
2022/04/07 02:18:39;;;;;;;2.42;0.90;;;10.20;76.40;;;;;;5017604;28;20041;-77
2022/04/07 02:21:05;;;;;;;1.13;0.90;;;10.20;76.40;;;;;;4995178;28;20541;-76
2022/04/07 02:23:34;;;;;;;1.55;0.90;;;10.10;76.40;;;;;;5025095;28;20291;-77
2022/04/07 02:25:59;;;;;;;1.20;1.10;;;10.20;76.50;;;;;;5019696;28;20044;-77
2022/04/07 02:28:25;;;;;;;1.08;0.98;;;10.10;76.40;;;;;;5019165;28;20041;-76
2022/04/07 02:30:50;;;;;;;1.02;0.93;;;10.10;76.40;;;;;;5008436;28;20536;-76
2022/04/07 02:33:16;;;;;;;1.95;1.05;;;10.10;76.50;;;;;;5006374;28;20532;-77
2022/04/07 02:35:41;;;;;;;2.28;1.00;;;10.10;76.40;;;;;;4992522;28;20106;-76
2022/04/07 02:38:07;;;;;;;1.58;0.98;;;10.10;76.60;;;;;;5013546;28;20021;-77
2022/04/07 02:40:32;;;;;;;2.13;1.00;;;10.10;76.60;;;;;;5017891;28;20041;-77
2022/04/07 02:42:58;;;;;;;2.38;0.90;;;10.10;76.60;;;;;;5005544;28;20112;-76
2022/04/07 02:45:23;;;;;;;1.13;1.00;;;10.10;76.60;;;;;;5001984;28;20228;-76
2022/04/07 02:47:49;;;;;;;1.30;1.20;;;10.10;76.70;;;;;;5007824;28;20045;-76
2022/04/07 02:50:16;;;;;;;1.58;1.10;;;10.10;76.80;;;;;;4989964;28;20051;-76
2022/04/07 02:52:42;;;;;;;1.05;0.80;;;10.10;76.80;;;;;;4983131;28;20423;-77
2022/04/07 02:55:09;;;;;;;1.27;0.98;;;10.10;76.80;;;;;;4995732;28;20036;-76
2022/04/07 02:57:34;;;;;;;3.78;1.20;;;10.10;77.70;;;;;;5009522;28;20036;-76
2022/04/07 03:00:00;;;;;;;3.25;1.10;;;10.10;76.80;;;;;;5021082;28;20045;-77
2022/04/07 03:02:26;;;;;;;1.23;0.88;;;10.20;76.90;;;;;;5013445;28;20036;-77
2022/04/07 03:04:52;;;;;;;3.15;1.33;;;10.10;76.80;;;;;;5016689;28;20098;-77
2022/04/07 03:07:17;;;;;;;1.52;1.13;;;10.10;76.80;;;;;;5012802;28;20025;-77
2022/04/07 03:09:43;;;;;;;1.23;0.90;;;10.10;77.00;;;;;;5016303;28;20029;-76
2022/04/07 03:12:09;;;;;;;1.20;0.90;;;10.10;77.00;;;;;;5011340;28;20393;-77
2022/04/07 03:14:35;;;;;;;0.98;0.88;;;10.20;77.10;;;;;;5022641;28;20041;-77
2022/04/07 03:17:00;;;;;;;1.27;1.17;;;10.20;77.20;;;;;;5021763;28;20025;-77
2022/04/07 03:19:26;;;;;;;1.33;1.10;;;10.10;77.20;;;;;;5032111;28;20115;-76
2022/04/07 03:21:51;;;;;;;1.52;0.95;;;10.10;77.30;;;;;;5046378;28;20025;-78
2022/04/07 03:24:17;;;;;;;1.08;0.93;;;10.20;77.50;;;;;;5000714;28;20025;-76
2022/04/07 03:26:42;;;;;;;1.40;1.23;;;10.20;77.40;;;;;;5029425;28;20116;-77
2022/04/07 03:29:08;;;;;;;1.52;1.20;;;10.10;77.40;;;;;;5029128;28;20097;-77
2022/04/07 03:31:33;;;;;;;1.15;0.80;;;10.20;77.50;;;;;;5020249;28;20040;-77
2022/04/07 03:33:59;;;;;;;6.22;4.50;;;10.20;77.50;;;;;;5020598;28;20513;-79
2022/04/07 03:36:24;;;;;;;6.22;5.55;;;10.20;77.60;;;;;;5010376;28;20045;-76
2022/04/07 03:38:51;;;;;;;2.75;2.55;;;10.20;77.50;;;;;;5020274;28;20040;-76
2022/04/07 03:41:17;;;;;;;6.60;5.00;;;10.20;77.60;;;;;;5018101;28;20084;-77
2022/04/07 03:43:43;;;;;;;8.68;5.20;;;10.20;77.70;;;;;;4985965;28;20099;-77
2022/04/07 03:46:09;;;;;;;1.40;1.20;;;10.20;77.70;;;;;;5026725;28;20120;-77
2022/04/07 03:48:35;;;;;;;0.90;0.90;;;10.20;77.70;;;;;;5019655;28;20037;-77
2022/04/07 03:51:01;;;;;;;94.55;48.35;;;10.20;77.70;;;;;;5005356;28;20079;-78
2022/04/07 03:53:27;;;;;;;11.57;6.65;;;10.20;77.70;;;;;;5018892;28;20097;-77
2022/04/07 03:55:52;;;;;;;30.73;19.70;;;10.20;77.70;;;;;;5008445;28;20409;-78
2022/04/07 03:58:18;;;;;;;3.90;2.35;;;10.20;77.70;;;;;;5021002;28;20024;-77
2022/04/07 04:00:43;;;;;;;1.90;1.63;;;10.20;77.70;;;;;;5040888;28;20119;-77
2022/04/07 04:03:09;;;;;;;0.98;0.98;;;10.20;77.70;;;;;;5018103;28;20037;-77
2022/04/07 04:05:34;;;;;;;1.25;1.15;;;10.20;77.80;;;;;;4998666;28;20661;-77
2022/04/07 04:08:00;;;;;;;1.52;0.82;;;10.20;77.80;;;;;;5022568;28;20649;-77
2022/04/07 04:10:26;;;;;;;1.08;0.85;;;10.20;77.80;;;;;;5024756;28;20032;-77
2022/04/07 04:12:51;;;;;;;1.00;0.90;;;10.20;77.90;;;;;;5041461;28;20037;-77
2022/04/07 04:15:18;;;;;;;1.65;0.80;;;10.20;78.00;;;;;;5013218;28;20052;-77
2022/04/07 04:17:43;;;;;;;1.02;0.80;;;10.20;78.10;;;;;;5014780;28;20029;-76
2022/04/07 04:20:10;;;;;;;2.05;0.95;;;10.20;78.20;;;;;;5023069;28;20060;-76
2022/04/07 04:22:36;;;;;;;0.82;0.70;;;10.20;78.30;;;;;;5002791;28;20093;-77
2022/04/07 04:25:01;;;;;;;1.67;1.00;;;10.10;78.40;;;;;;5024580;28;20496;-77
2022/04/07 04:27:27;;;;;;;2.08;0.73;;;10.10;78.50;;;;;;5016029;28;20151;-76
2022/04/07 04:29:53;;;;;;;1.40;1.30;;;10.10;78.70;;;;;;4976639;28;20135;-75
2022/04/07 04:32:18;;;;;;;1.85;1.02;;;10.10;78.80;;;;;;5021356;28;20047;-76
2022/04/07 04:34:44;;;;;;;1.13;0.77;;;10.10;78.80;;;;;;5040850;28;20537;-76
2022/04/07 04:37:09;;;;;;;1.73;1.10;;;10.10;78.90;;;;;;4998681;28;20863;-76
2022/04/07 04:39:35;;;;;;;1.27;0.80;;;10.00;79.00;;;;;;5025537;28;20564;-76
2022/04/07 04:42:00;;;;;;;0.60;0.57;;;10.00;79.10;;;;;;5044148;28;20143;-78
2022/04/07 04:44:26;;;;;;;1.08;0.90;;;10.00;79.20;;;;;;5012155;28;20410;-75
2022/04/07 04:46:51;;;;;;;1.30;1.20;;;10.00;79.30;;;;;;5010293;28;20049;-75
2022/04/07 04:49:17;;;;;;;1.55;1.33;;;10.00;79.40;;;;;;5022525;28;20040;-76
2022/04/07 04:51:42;;;;;;;1.30;1.20;;;10.00;79.50;;;;;;5037639;28;20509;-75
2022/04/07 04:54:08;;;;;;;1.25;0.95;;;10.00;79.60;;;;;;5039929;28;20413;-75
2022/04/07 04:56:33;;;;;;;0.60;0.60;;;10.00;79.70;;;;;;5019676;28;20032;-75
2022/04/07 04:58:59;;;;;;;1.08;0.85;;;10.00;79.80;;;;;;5010970;28;20120;-75
2022/04/07 05:01:25;;;;;;;0.98;0.80;;;10.00;80.00;;;;;;5027772;28;20037;-75
2022/04/07 05:03:50;;;;;;;1.20;1.00;;;9.90;80.10;;;;;;5024015;28;20095;-75
2022/04/07 05:06:16;;;;;;;1.05;0.82;;;9.90;80.10;;;;;;4989371;28;20128;-76
2022/04/07 05:08:41;;;;;;;1.70;1.50;;;9.90;80.20;;;;;;5006527;28;20597;-76
2022/04/07 05:11:07;;;;;;;2.20;1.00;;;9.90;80.30;;;;;;5026895;28;20452;-75
2022/04/07 05:13:32;;;;;;;0.95;0.88;;;9.90;80.40;;;;;;4988001;28;20613;-75
2022/04/07 05:15:58;;;;;;;1.92;1.60;;;9.90;80.60;;;;;;4999901;28;20053;-75
2022/04/07 05:18:23;;;;;;;2.38;1.85;;;9.90;80.60;;;;;;5000057;28;20710;-75
2022/04/07 05:20:49;;;;;;;1.45;1.02;;;9.90;80.70;;;;;;4973890;28;20442;-75
2022/04/07 05:23:15;;;;;;;1.48;0.82;;;9.90;80.70;;;;;;4986346;28;20092;-76
2022/04/07 05:25:40;;;;;;;0.80;0.80;;;9.90;80.70;;;;;;4988484;28;20418;-76
2022/04/07 05:28:06;;;;;;;0.95;0.80;;;9.90;80.70;;;;;;4966966;28;20494;-75
2022/04/07 05:30:32;;;;;;;1.00;0.90;;;9.90;80.80;;;;;;5001791;28;20678;-76
2022/04/07 05:32:57;;;;;;;1.23;0.80;;;10.00;80.90;;;;;;4994219;28;20471;-77
2022/04/07 05:35:26;;;;;;;0.70;0.70;;;10.00;80.90;;;;;;4990462;28;20053;-75
2022/04/07 05:37:59;;;;;;;1.00;0.70;;;10.00;81.00;;;;;;4987786;28;20044;-75
2022/04/07 05:40:26;;;;;;;0.93;0.60;;;10.00;81.10;;;;;;4985137;28;20045;-76
2022/04/07 05:42:51;;;;;;;1.13;0.68;;;10.00;80.90;;;;;;4987396;28;20489;-76
2022/04/07 05:45:17;;;;;;;2.03;0.90;;;10.00;80.90;;;;;;5001865;28;20545;-76
2022/04/07 05:47:43;;;;;;;4.47;1.08;;;10.00;80.90;;;;;;4995022;28;20033;-76
2022/04/07 05:50:10;;;;;;;3.03;2.00;;;10.00;80.80;;;;;;5007736;28;20167;-76
2022/04/07 05:52:36;;;;;;;3.83;3.05;;;10.00;80.90;;;;;;4967882;28;20117;-76
2022/04/07 05:55:02;;;;;;;5.15;3.20;;;10.00;80.80;;;;;;4994081;28;20049;-76
2022/04/07 05:57:30;;;;;;;2.90;1.63;;;10.00;80.90;;;;;;5000402;28;20061;-75
2022/04/07 06:00:04;;;;;;;2.45;1.10;;;10.10;80.90;;;;;;5000447;28;20045;-76
2022/04/07 06:02:30;;;;;;;1.92;1.38;;;10.10;80.90;;;;;;5003898;28;20026;-75
2022/04/07 06:04:56;;;;;;;0.80;0.80;;;10.10;80.80;;;;;;4982557;28;20069;-76
2022/04/07 06:07:22;;;;;;;1.10;1.00;;;10.10;80.80;;;;;;5019864;28;20056;-76
2022/04/07 06:09:47;;;;;;;2.78;2.55;;;10.10;80.80;;;;;;5001056;28;20402;-76
2022/04/07 06:12:13;;;;;;;1.00;1.00;;;10.20;80.80;;;;;;4987755;28;20036;-76
2022/04/07 06:14:39;;;;;;;1.58;0.80;;;10.20;80.90;;;;;;4988621;28;20044;-75
2022/04/07 06:17:04;;;;;;;2.85;1.80;;;10.20;81.00;;;;;;5035973;28;20112;-75
2022/04/07 06:19:30;;;;;;;2.25;1.55;;;10.20;81.00;;;;;;4991774;28;20115;-75
2022/04/07 06:21:55;;;;;;;3.83;2.72;;;10.20;81.20;;;;;;4992300;28;20773;-75
2022/04/07 06:24:21;;;;;;;1.13;1.10;;;10.20;81.20;;;;;;4998809;28;20060;-75
2022/04/07 06:26:49;;;;;;;2.40;1.20;;;10.20;81.10;;;;;;5021186;28;20041;-75
2022/04/07 06:29:14;;;;;;;1.13;1.00;;;10.20;81.10;;;;;;5036441;28;20032;-76
2022/04/07 06:31:40;;;;;;;2.13;1.38;;;10.20;81.20;;;;;;5044234;28;20043;-75
2022/04/07 06:34:05;;;;;;;2.78;2.05;;;10.10;81.20;;;;;;5038693;28;20132;-75
2022/04/07 06:36:31;;;;;;;1.75;1.30;;;10.20;81.30;;;;;;5003815;28;20121;-76
2022/04/07 06:38:57;;;;;;;4.43;2.65;;;10.20;81.40;;;;;;5021263;28;20080;-75
2022/04/07 06:41:22;;;;;;;5.07;1.73;;;10.20;81.40;;;;;;5011814;28;20083;-75
2022/04/07 06:43:48;;;;;;;3.67;1.70;;;10.20;81.40;;;;;;5033483;28;20028;-75
2022/04/07 06:46:13;;;;;;;2.17;1.85;;;10.30;81.40;;;;;;5024519;28;20049;-75
2022/04/07 06:48:39;;;;;;;2.85;1.30;;;10.20;81.40;;;;;;5027052;28;20063;-75
2022/04/07 06:51:04;;;;;;;1.58;1.10;;;10.30;81.40;;;;;;5017323;28;20124;-74
2022/04/07 06:53:30;;;;;;;1.10;1.00;;;10.40;81.50;;;;;;5032894;28;20029;-75
2022/04/07 06:55:55;;;;;;;2.25;0.95;;;10.40;81.40;;;;;;5031763;28;20040;-75
2022/04/07 06:58:21;;;;;;;1.40;1.10;;;10.40;81.40;;;;;;5032949;28;20033;-74
2022/04/07 07:00:46;;;;;;;1.10;0.82;;;10.40;81.30;;;;;;5020692;28;20076;-74
2022/04/07 07:03:15;;;;;;;0.82;0.82;;;10.50;81.20;;;;;;5008898;28;20034;-75
2022/04/07 07:05:41;;;;;;;1.20;1.00;;;10.50;81.20;;;;;;5022622;28;20044;-75
2022/04/07 07:08:17;;;;;;;1.85;0.70;;;10.50;81.10;;;;;;5029293;28;20559;-75
2022/04/07 07:10:44;;;;;;;1.25;1.00;;;10.60;81.00;;;;;;5022157;28;20094;-75
2022/04/07 07:13:09;;;;;;;0.80;0.80;;;10.60;80.90;;;;;;5004132;28;20044;-75
2022/04/07 07:15:35;;;;;;;1.23;0.93;;;10.70;80.80;;;;;;5024031;28;20049;-75
2022/04/07 07:18:00;;;;;;;1.80;1.02;;;10.70;80.70;;;;;;5030281;28;20045;-75
2022/04/07 07:20:26;;;;;;;2.38;0.88;;;10.70;80.50;;;;;;5020824;28;20048;-74
2022/04/07 07:22:51;;;;;;;1.08;0.98;;;10.70;80.40;;;;;;5010204;28;20029;-75
2022/04/07 07:25:17;;;;;;;1.83;1.10;;;10.80;81.20;;;;;;5015181;28;20065;-75
2022/04/07 07:27:44;;;;;;;2.35;1.27;;;10.80;80.30;;;;;;5030673;28;20098;-75
2022/04/07 07:30:11;;;;;;;6.15;1.58;;;10.80;80.10;;;;;;5005615;28;20037;-75
2022/04/07 07:32:39;;;;;;;2.63;1.13;;;10.80;80.00;;;;;;5027557;28;20067;-75
2022/04/07 07:35:06;;;;;;;1.38;1.08;;;10.80;79.90;;;;;;5012382;28;20090;-75
2022/04/07 07:37:31;;;;;;;1.42;1.33;;;10.80;79.90;;;;;;5021144;28;20030;-75
2022/04/07 07:39:57;;;;;;;1.80;1.20;;;10.80;79.90;;;;;;4988183;28;20084;-75
2022/04/07 07:42:24;;;;;;;1.75;1.40;;;10.80;79.90;;;;;;5037503;28;20029;-76
2022/04/07 07:44:50;;;;;;;2.03;1.60;;;10.80;79.90;;;;;;5008234;28;20038;-75
2022/04/07 07:47:15;;;;;;;3.10;1.00;;;10.80;80.00;;;;;;5018313;28;20452;-76
2022/04/07 07:49:41;;;;;;;2.88;1.10;;;10.80;80.00;;;;;;5032845;28;20029;-76
2022/04/07 07:52:06;;;;;;;2.60;1.55;;;10.80;80.10;;;;;;5016828;28;20554;-75
2022/04/07 07:54:32;;;;;;;0.70;0.70;;;10.80;80.20;;;;;;5029978;28;20033;-75
2022/04/07 07:56:57;;;;;;;5.50;1.17;;;10.80;80.30;;;;;;5026447;28;20109;-76
2022/04/07 07:59:24;;;;;;;1.63;1.25;;;10.70;80.20;;;;;;5013453;28;20025;-74
2022/04/07 08:01:49;;;;;;;1.58;0.90;;;10.70;80.40;;;;;;5041908;28;20062;-74
2022/04/07 08:04:15;;;;;;;1.15;0.80;;;10.70;80.50;;;;;;5010698;28;20033;-75
2022/04/07 08:06:41;;;;;;;2.30;0.98;;;10.70;80.60;;;;;;5043775;28;20344;-76
2022/04/07 08:09:08;;;;;;;1.88;0.90;;;10.70;80.70;;;;;;5034571;28;20682;-75
2022/04/07 08:11:34;;;;;;;1.05;0.93;;;10.70;80.80;;;;;;5027461;28;20037;-75
2022/04/07 08:13:59;;;;;;;1.33;0.80;;;10.70;80.80;;;;;;4991223;28;20044;-75
2022/04/07 08:16:25;;;;;;;0.77;0.73;;;10.70;80.80;;;;;;5034238;28;20038;-75
2022/04/07 08:18:50;;;;;;;1.02;0.60;;;10.70;80.90;;;;;;5005442;28;20387;-74
2022/04/07 08:21:16;;;;;;;0.40;0.40;;;10.70;81.00;;;;;;5027808;28;20041;-75
2022/04/07 08:23:41;;;;;;;0.73;0.63;;;10.80;81.10;;;;;;5030999;28;20053;-75
2022/04/07 08:26:07;;;;;;;0.50;0.35;;;10.80;80.90;;;;;;5005617;28;20049;-75
2022/04/07 08:28:32;;;;;;;2.30;0.30;;;10.80;80.90;;;;;;4994627;28;20063;-75
2022/04/07 08:30:58;;;;;;;1.25;0.80;;;10.70;80.80;;;;;;5009361;28;20049;-75
2022/04/07 08:33:23;;;;;;;1.35;0.90;;;10.80;81.00;;;;;;4996593;28;20677;-75
2022/04/07 08:35:51;;;;;;;2.05;0.90;;;10.70;80.90;;;;;;4982453;28;20413;-75
2022/04/07 08:38:16;;;;;;;1.70;0.80;;;10.80;81.00;;;;;;5031934;28;20040;-75
2022/04/07 08:40:42;;;;;;;1.75;0.57;;;10.70;80.90;;;;;;5000025;28;20089;-75
2022/04/07 08:43:09;;;;;;;0.40;0.40;;;10.80;81.00;;;;;;4987219;28;20095;-75
2022/04/07 08:45:36;;;;;;;0.50;0.45;;;10.80;81.10;;;;;;5012690;28;20040;-75
2022/04/07 08:48:02;;;;;;;0.40;0.40;;;10.80;81.10;;;;;;4995484;28;20037;-75
2022/04/07 08:50:27;;;;;;;0.30;0.30;;;10.80;81.00;;;;;;5014494;28;20524;-75
2022/04/07 08:52:53;;;;;;;0.38;0.38;;;10.80;81.00;;;;;;5005795;28;20037;-75
2022/04/07 08:55:19;;;;;;;0.52;0.30;;;10.80;81.00;;;;;;4963490;28;20110;-75
2022/04/07 08:57:44;;;;;;;0.50;0.30;;;10.80;81.00;;;;;;5006072;28;20037;-75
2022/04/07 09:00:11;;;;;;;0.25;0.25;;;10.90;81.20;;;;;;5002628;28;20037;-75
2022/04/07 09:02:37;;;;;;;1.90;0.40;;;10.90;80.90;;;;;;5013199;28;20029;-75
2022/04/07 09:05:04;;;;;;;1.30;0.70;;;10.90;80.90;;;;;;5021165;28;20038;-76
2022/04/07 09:07:33;;;;;;;2.42;1.70;;;10.90;80.90;;;;;;4973598;28;20036;-75
2022/04/07 09:10:03;;;;;;;1.30;0.70;;;10.90;81.00;;;;;;5010346;28;20038;-76
2022/04/07 09:12:28;;;;;;;1.45;1.35;;;10.90;81.10;;;;;;4989563;28;20080;-76
2022/04/07 09:14:58;;;;;;;1.20;0.95;;;10.90;81.00;;;;;;5024143;28;20305;-75
2022/04/07 09:17:24;;;;;;;0.88;0.50;;;11.00;81.20;;;;;;4990389;28;20026;-76
2022/04/07 09:19:50;;;;;;;2.05;0.40;;;11.00;81.20;;;;;;5026447;28;20036;-76
2022/04/07 09:22:15;;;;;;;0.60;0.60;;;11.00;81.20;;;;;;5015729;28;20566;-76
2022/04/07 09:24:41;;;;;;;0.70;0.40;;;11.00;81.20;;;;;;5025120;28;20029;-76
2022/04/07 09:27:09;;;;;;;0.45;0.30;;;11.10;81.30;;;;;;5046831;28;20044;-75
2022/04/07 09:29:45;;;;;;;0.88;0.22;;;11.00;81.10;;;;;;5026979;28;20436;-75
2022/04/07 09:32:24;;;;;;;0.70;0.20;;;11.00;81.20;;;;;;5008362;28;20111;-75
2022/04/07 09:34:53;;;;;;;0.45;0.30;;;11.00;81.20;;;;;;5014662;28;20029;-75
2022/04/07 09:37:23;;;;;;;0.60;0.50;;;11.00;81.10;;;;;;5025047;28;20025;-74
2022/04/07 09:39:50;;;;;;;0.90;0.20;;;11.10;81.00;;;;;;5017309;28;20073;-75
2022/04/07 09:42:22;;;;;;;0.77;0.30;;;11.10;81.00;;;;;;5023736;28;20131;-75
2022/04/07 09:44:59;;;;;;;0.52;0.40;;;11.10;81.10;;;;;;5014336;28;20041;-76
2022/04/07 09:47:37;;;;;;;0.55;0.40;;;11.10;81.00;;;;;;5034192;28;20447;-75
2022/04/07 09:50:03;;;;;;;1.77;0.30;;;11.10;81.00;;;;;;5028865;28;20040;-77
2022/04/07 09:52:29;;;;;;;0.38;0.28;;;11.10;80.80;;;;;;5006930;28;20040;-75
2022/04/07 09:54:55;;;;;;;0.20;0.20;;;11.10;80.70;;;;;;5042372;28;20037;-75
2022/04/07 09:57:20;;;;;;;0.20;0.20;;;11.20;80.80;;;;;;5026284;28;20747;-76
2022/04/07 09:59:47;;;;;;;1.42;0.20;;;11.20;80.80;;;;;;5020482;28;20484;-76
2022/04/07 10:02:13;;;;;;;0.70;0.20;;;11.20;80.70;;;;;;5019132;28;20059;-75
2022/04/07 10:04:38;;;;;;;0.43;0.40;;;11.20;80.50;;;;;;4990740;28;20063;-75
2022/04/07 10:07:05;;;;;;;0.20;0.20;;;11.30;80.50;;;;;;5005741;28;20038;-76
2022/04/07 10:09:31;;;;;;;0.98;0.20;;;11.30;80.40;;;;;;4982326;28;20037;-75
2022/04/07 10:11:58;;;;;;;0.60;0.43;;;11.30;80.30;;;;;;5015337;28;20032;-75
2022/04/07 10:14:24;;;;;;;0.98;0.22;;;11.30;80.20;;;;;;5035138;28;20592;-75
2022/04/07 10:16:51;;;;;;;0.60;0.40;;;11.40;80.10;;;;;;5062706;28;20040;-75
2022/04/07 10:19:16;;;;;;;0.30;0.30;;;11.40;80.00;;;;;;5054791;28;20120;-75
2022/04/07 10:21:57;;;;;;;0.52;0.43;;;11.40;80.00;;;;;;5047433;28;20071;-75
2022/04/07 10:24:45;;;;;;;0.80;0.30;;;11.50;80.00;;;;;;5064191;28;20033;-75
2022/04/07 10:27:10;;;;;;;0.55;0.20;;;11.50;79.90;;;;;;5039731;28;20048;-75
2022/04/07 10:29:39;;;;;;;1.55;0.30;;;11.50;79.80;;;;;;5031239;28;20025;-75
2022/04/07 10:32:11;;;;;;;0.17;0.17;;;11.50;79.60;;;;;;5047846;28;20040;-75
2022/04/07 10:34:37;;;;;;;0.55;0.43;;;11.60;79.60;;;;;;5051165;28;20038;-75
2022/04/07 10:37:04;;;;;;;1.02;0.40;;;11.60;79.60;;;;;;5037173;28;20090;-76
2022/04/07 10:39:32;;;;;;;0.20;0.20;;;11.60;79.50;;;;;;5043552;28;20033;-75
2022/04/07 10:41:58;;;;;;;0.40;0.40;;;11.60;79.50;;;;;;5026626;28;20037;-76
2022/04/07 10:44:25;;;;;;;0.47;0.32;;;11.70;79.50;;;;;;5060857;28;20037;-76
2022/04/07 10:47:01;;;;;;;0.40;0.40;;;11.70;79.40;;;;;;5036942;28;20059;-76
2022/04/07 10:49:27;;;;;;;0.50;0.40;;;11.70;79.50;;;;;;5044301;28;20559;-75
2022/04/07 10:51:56;;;;;;;2.35;0.25;;;11.70;79.40;;;;;;5062747;28;20037;-76
2022/04/07 10:54:22;;;;;;;1.75;0.60;;;11.70;79.50;;;;;;4999550;28;20409;-75
2022/04/07 10:56:49;;;;;;;0.85;0.40;;;11.80;79.50;;;;;;5035889;28;20075;-76
2022/04/07 10:59:17;;;;;;;0.20;0.20;;;11.70;79.50;;;;;;5034717;28;20374;-76
2022/04/07 11:01:43;;;;;;;0.20;0.10;;;11.80;79.70;;;;;;5046585;28;20037;-76
2022/04/07 11:04:18;;;;;;;1.48;0.32;;;11.80;79.70;;;;;;5061408;28;20033;-75
2022/04/07 11:07:02;;;;;;;0.20;0.20;;;11.70;80.00;;;;;;5033503;28;20107;-76
2022/04/07 11:10:02;;;;;;;1.27;0.30;;;11.70;80.20;;;;;;5049774;28;20033;-75
2022/04/07 11:13:00;;;;;;;0.43;0.17;;;11.70;80.40;;;;;;5039249;28;20698;-75
2022/04/07 11:15:32;;;;;;;0.32;0.32;;;11.70;80.50;;;;;;5032567;28;20032;-76
2022/04/07 11:18:03;;;;;;;2.47;0.30;;;11.70;80.40;;;;;;5029828;28;20086;-76
2022/04/07 11:20:29;;;;;;;1.17;1.10;;;11.70;80.50;;;;;;5047753;28;20443;-75
2022/04/07 11:22:57;;;;;;;0.28;0.28;;;11.70;80.50;;;;;;5045216;28;20038;-76
2022/04/07 11:25:36;;;;;;;0.63;0.40;;;11.70;80.70;;;;;;5032897;28;20441;-76
2022/04/07 11:28:05;;;;;;;0.93;0.50;;;11.70;80.80;;;;;;5039287;28;20040;-76
2022/04/07 11:30:55;;;;;;;0.30;0.20;;;11.70;80.60;;;;;;5062098;28;20033;-76
2022/04/07 11:33:26;;;;;;;0.40;0.25;;;11.70;80.80;;;;;;5063912;28;20035;-75
2022/04/07 11:36:00;;;;;;;0.30;0.30;;;11.70;80.60;;;;;;5060635;28;20527;-76
2022/04/07 11:38:26;;;;;;;0.20;0.10;;;11.80;80.80;;;;;;5061536;28;20345;-75
2022/04/07 11:41:08;;;;;;;0.30;0.30;;;11.70;80.60;;;;;;5029679;28;20032;-75
2022/04/07 11:43:34;;;;;;;0.47;0.20;;;11.80;80.90;;;;;;5040738;28;20115;-76
2022/04/07 11:46:01;;;;;;;0.30;0.20;;;11.80;80.70;;;;;;5051651;28;20036;-75
2022/04/07 11:48:30;;;;;;;0.25;0.20;;;11.80;80.70;;;;;;5028225;28;20037;-76
2022/04/07 11:51:02;;;;;;;0.68;0.30;;;11.80;80.80;;;;;;5017792;28;20485;-76
2022/04/07 11:53:28;;;;;;;0.20;0.20;;;11.80;80.70;;;;;;5034678;28;20082;-75
2022/04/07 11:55:54;;;;;;;0.30;0.20;;;11.80;80.70;;;;;;5037413;28;20046;-76
2022/04/07 11:58:19;;;;;;;0.77;0.20;;;11.80;80.60;;;;;;5048790;28;20028;-76
2022/04/07 12:00:45;;;;;;;0.30;0.30;;;11.90;80.70;;;;;;5061956;28;20040;-75
2022/04/07 12:03:10;;;;;;;0.20;0.20;;;11.90;80.70;;;;;;5027429;28;20029;-75
2022/04/07 12:05:37;;;;;;;1.50;0.30;;;11.90;80.60;;;;;;5056406;28;20120;-77
2022/04/07 12:08:12;;;;;;;0.32;0.10;;;11.90;80.50;;;;;;5019881;28;20197;-75
2022/04/07 12:10:38;;;;;;;0.43;0.30;;;12.00;80.60;;;;;;5050721;28;20056;-77
2022/04/07 12:13:04;;;;;;;0.20;0.20;;;12.00;80.40;;;;;;5031146;28;20324;-76
2022/04/07 12:15:30;;;;;;;1.35;0.50;;;12.00;80.30;;;;;;5009492;28;20086;-76
2022/04/07 12:18:03;;;;;;;1.00;0.90;;;12.10;80.40;;;;;;5031391;28;20029;-74
2022/04/07 12:20:29;;;;;;;0.63;0.50;;;12.10;80.50;;;;;;5032015;28;20021;-76
2022/04/07 12:23:10;;;;;;;1.15;0.80;;;12.10;80.30;;;;;;5051261;28;20090;-76
2022/04/07 12:25:36;;;;;;;;;;;12.10;80.40;;;;;;5048680;28;20489;-76
2022/04/07 12:28:17;;;;;;;0.32;0.30;;;12.20;80.10;;;;;;5044267;28;19913;-76
2022/04/07 12:30:53;;;;;;;0.22;0.22;;;12.30;80.10;;;;;;5030147;28;20032;-76
2022/04/07 12:33:43;;;;;;;1.45;0.20;;;12.30;80.00;;;;;;5062235;28;20765;-76
2022/04/07 12:36:16;;;;;;;0.30;0.30;;;12.30;80.00;;;;;;5045438;28;20052;-77
2022/04/07 12:39:03;;;;;;;0.95;0.80;;;12.40;79.80;;;;;;5031439;28;20536;-76
2022/04/07 12:41:46;;;;;;;2.72;0.40;;;12.40;79.70;;;;;;5036745;28;20341;-76
2022/04/07 12:44:17;;;;;;;0.32;0.20;;;12.40;79.90;;;;;;5023882;28;20048;-76
2022/04/07 12:46:53;;;;;;;3.22;1.15;;;12.50;79.70;;;;;;5029546;28;20050;-76
2022/04/07 12:49:31;;;;;;;5.90;2.33;;;12.50;79.60;;;;;;5043410;28;20101;-77